sensor_id;sensor_type;location;lat;lon;timestamp;temperature;humidity
10051;DHT22;5065;46.942;7.432;2023-12-07T00:00:22;4.90;99.90
10051;DHT22;5065;46.942;7.432;2023-12-07T00:02:49;4.80;99.90
10051;DHT22;5065;46.942;7.432;2023-12-07T00:05:16;4.90;99.90
10051;DHT22;5065;46.942;7.432;2023-12-07T00:07:45;4.70;99.90
10051;DHT22;5065;46.942;7.432;2023-12-07T00:10:14;4.80;99.90
10051;DHT22;5065;46.942;7.432;2023-12-07T00:12:41;4.80;99.90
10051;DHT22;5065;46.942;7.432;2023-12-07T00:15:08;4.80;99.90
10051;DHT22;5065;46.942;7.432;2023-12-07T00:17:36;4.70;99.90
10051;DHT22;5065;46.942;7.432;2023-12-07T00:20:04;4.70;99.90
10051;DHT22;5065;46.942;7.432;2023-12-07T00:22:31;4.60;99.90
10051;DHT22;5065;46.942;7.432;2023-12-07T00:25:00;4.60;99.90
10051;DHT22;5065;46.942;7.432;2023-12-07T00:27:27;4.50;99.90
10051;DHT22;5065;46.942;7.432;2023-12-07T00:29:55;4.50;99.90
10051;DHT22;5065;46.942;7.432;2023-12-07T00:32:22;4.50;99.90
10051;DHT22;5065;46.942;7.432;2023-12-07T00:34:50;4.50;99.90
10051;DHT22;5065;46.942;7.432;2023-12-07T00:37:17;4.40;99.90
10051;DHT22;5065;46.942;7.432;2023-12-07T00:39:44;4.40;99.90
10051;DHT22;5065;46.942;7.432;2023-12-07T00:42:13;4.30;99.90
10051;DHT22;5065;46.942;7.432;2023-12-07T00:44:40;4.30;99.90
10051;DHT22;5065;46.942;7.432;2023-12-07T00:47:07;4.40;99.90
10051;DHT22;5065;46.942;7.432;2023-12-07T00:49:37;4.40;99.90
10051;DHT22;5065;46.942;7.432;2023-12-07T00:52:05;4.40;99.90
10051;DHT22;5065;46.942;7.432;2023-12-07T00:54:32;4.40;99.90
10051;DHT22;5065;46.942;7.432;2023-12-07T00:56:59;4.50;99.90
10051;DHT22;5065;46.942;7.432;2023-12-07T00:59:28;4.40;99.90
10051;DHT22;5065;46.942;7.432;2023-12-07T01:02:00;4.40;99.90
10051;DHT22;5065;46.942;7.432;2023-12-07T01:04:27;4.40;99.90
10051;DHT22;5065;46.942;7.432;2023-12-07T01:06:54;4.40;99.90
10051;DHT22;5065;46.942;7.432;2023-12-07T01:09:22;4.30;99.90
10051;DHT22;5065;46.942;7.432;2023-12-07T01:11:49;4.30;99.90
10051;DHT22;5065;46.942;7.432;2023-12-07T01:14:17;4.30;99.90
10051;DHT22;5065;46.942;7.432;2023-12-07T01:16:45;4.30;99.90
10051;DHT22;5065;46.942;7.432;2023-12-07T01:19:13;4.30;99.90
10051;DHT22;5065;46.942;7.432;2023-12-07T01:21:40;4.20;99.90
10051;DHT22;5065;46.942;7.432;2023-12-07T01:24:07;4.30;99.90
10051;DHT22;5065;46.942;7.432;2023-12-07T01:26:35;4.30;99.90
10051;DHT22;5065;46.942;7.432;2023-12-07T01:29:02;4.30;99.90
10051;DHT22;5065;46.942;7.432;2023-12-07T01:31:29;4.30;99.90
10051;DHT22;5065;46.942;7.432;2023-12-07T01:33:58;4.30;99.90
10051;DHT22;5065;46.942;7.432;2023-12-07T01:36:25;4.30;99.90
10051;DHT22;5065;46.942;7.432;2023-12-07T01:38:52;4.30;99.90
10051;DHT22;5065;46.942;7.432;2023-12-07T01:41:19;4.20;99.90
10051;DHT22;5065;46.942;7.432;2023-12-07T01:43:47;4.30;99.90
10051;DHT22;5065;46.942;7.432;2023-12-07T01:46:17;4.20;99.90
10051;DHT22;5065;46.942;7.432;2023-12-07T01:48:44;4.20;99.90
10051;DHT22;5065;46.942;7.432;2023-12-07T01:51:16;4.20;99.90
10051;DHT22;5065;46.942;7.432;2023-12-07T01:53:45;4.10;99.90
10051;DHT22;5065;46.942;7.432;2023-12-07T01:56:13;4.10;99.90
10051;DHT22;5065;46.942;7.432;2023-12-07T01:58:42;4.10;99.90
10051;DHT22;5065;46.942;7.432;2023-12-07T02:01:09;4.10;99.90
10051;DHT22;5065;46.942;7.432;2023-12-07T02:03:39;4.10;99.90
10051;DHT22;5065;46.942;7.432;2023-12-07T02:06:07;4.10;99.90
10051;DHT22;5065;46.942;7.432;2023-12-07T02:08:37;4.10;99.90
10051;DHT22;5065;46.942;7.432;2023-12-07T02:11:07;4.00;99.90
10051;DHT22;5065;46.942;7.432;2023-12-07T02:13:35;4.00;99.90
10051;DHT22;5065;46.942;7.432;2023-12-07T02:16:10;4.00;99.90
10051;DHT22;5065;46.942;7.432;2023-12-07T02:18:44;4.00;99.90
10051;DHT22;5065;46.942;7.432;2023-12-07T02:21:16;4.00;99.90
10051;DHT22;5065;46.942;7.432;2023-12-07T02:23:47;4.00;99.90
10051;DHT22;5065;46.942;7.432;2023-12-07T02:26:19;4.00;99.90
10051;DHT22;5065;46.942;7.432;2023-12-07T02:28:48;4.00;99.90
10051;DHT22;5065;46.942;7.432;2023-12-07T02:31:15;3.90;99.90
10051;DHT22;5065;46.942;7.432;2023-12-07T02:33:43;3.90;99.90
10051;DHT22;5065;46.942;7.432;2023-12-07T02:36:11;3.90;99.90
10051;DHT22;5065;46.942;7.432;2023-12-07T02:38:39;3.90;99.90
10051;DHT22;5065;46.942;7.432;2023-12-07T02:41:07;3.90;99.90
10051;DHT22;5065;46.942;7.432;2023-12-07T02:43:35;3.90;99.90
10051;DHT22;5065;46.942;7.432;2023-12-07T02:46:04;3.90;99.90
10051;DHT22;5065;46.942;7.432;2023-12-07T02:48:31;3.80;99.90
10051;DHT22;5065;46.942;7.432;2023-12-07T02:50:58;3.80;99.90
10051;DHT22;5065;46.942;7.432;2023-12-07T02:53:25;3.80;99.90
10051;DHT22;5065;46.942;7.432;2023-12-07T02:55:52;3.80;99.90
10051;DHT22;5065;46.942;7.432;2023-12-07T02:58:20;3.90;99.90
10051;DHT22;5065;46.942;7.432;2023-12-07T03:00:47;3.80;99.90
10051;DHT22;5065;46.942;7.432;2023-12-07T03:03:15;3.80;99.90
10051;DHT22;5065;46.942;7.432;2023-12-07T03:05:42;3.80;99.90
10051;DHT22;5065;46.942;7.432;2023-12-07T03:08:09;3.60;99.90
10051;DHT22;5065;46.942;7.432;2023-12-07T03:10:37;3.60;99.90
10051;DHT22;5065;46.942;7.432;2023-12-07T03:13:04;3.60;99.90
10051;DHT22;5065;46.942;7.432;2023-12-07T03:15:31;3.60;99.90
10051;DHT22;5065;46.942;7.432;2023-12-07T03:17:58;3.60;99.90
10051;DHT22;5065;46.942;7.432;2023-12-07T03:20:27;3.70;99.90
10051;DHT22;5065;46.942;7.432;2023-12-07T03:22:54;3.60;99.90
10051;DHT22;5065;46.942;7.432;2023-12-07T03:25:21;3.60;99.90
10051;DHT22;5065;46.942;7.432;2023-12-07T03:27:48;3.60;99.90
10051;DHT22;5065;46.942;7.432;2023-12-07T03:30:16;3.60;99.90
10051;DHT22;5065;46.942;7.432;2023-12-07T03:32:43;3.60;99.90
10051;DHT22;5065;46.942;7.432;2023-12-07T03:35:10;3.60;99.90
10051;DHT22;5065;46.942;7.432;2023-12-07T03:37:38;3.50;99.90
10051;DHT22;5065;46.942;7.432;2023-12-07T03:40:07;3.50;99.90
10051;DHT22;5065;46.942;7.432;2023-12-07T03:42:35;3.50;99.90
10051;DHT22;5065;46.942;7.432;2023-12-07T03:45:02;3.50;99.90
10051;DHT22;5065;46.942;7.432;2023-12-07T03:47:29;3.50;99.90
10051;DHT22;5065;46.942;7.432;2023-12-07T03:49:56;3.50;99.90
10051;DHT22;5065;46.942;7.432;2023-12-07T03:52:24;3.50;99.90
10051;DHT22;5065;46.942;7.432;2023-12-07T03:54:52;3.50;99.90
10051;DHT22;5065;46.942;7.432;2023-12-07T03:57:19;3.40;99.90
10051;DHT22;5065;46.942;7.432;2023-12-07T03:59:47;3.40;99.90
10051;DHT22;5065;46.942;7.432;2023-12-07T04:02:14;3.40;99.90
10051;DHT22;5065;46.942;7.432;2023-12-07T04:04:41;3.30;99.90
10051;DHT22;5065;46.942;7.432;2023-12-07T04:07:08;3.30;99.90
10051;DHT22;5065;46.942;7.432;2023-12-07T04:09:36;3.30;99.90
10051;DHT22;5065;46.942;7.432;2023-12-07T04:12:05;3.30;99.90
10051;DHT22;5065;46.942;7.432;2023-12-07T04:14:32;3.20;99.90
10051;DHT22;5065;46.942;7.432;2023-12-07T04:16:59;3.10;99.90
10051;DHT22;5065;46.942;7.432;2023-12-07T04:19:27;3.10;99.90
10051;DHT22;5065;46.942;7.432;2023-12-07T04:21:54;3.10;99.90
10051;DHT22;5065;46.942;7.432;2023-12-07T04:24:21;3.20;99.90
10051;DHT22;5065;46.942;7.432;2023-12-07T04:26:48;3.10;99.90
10051;DHT22;5065;46.942;7.432;2023-12-07T04:29:17;3.10;99.90
10051;DHT22;5065;46.942;7.432;2023-12-07T04:31:44;3.00;99.90
10051;DHT22;5065;46.942;7.432;2023-12-07T04:34:11;3.00;99.90
10051;DHT22;5065;46.942;7.432;2023-12-07T04:36:38;3.00;99.90
10051;DHT22;5065;46.942;7.432;2023-12-07T04:39:06;2.90;99.90
10051;DHT22;5065;46.942;7.432;2023-12-07T04:41:34;3.00;99.90
10051;DHT22;5065;46.942;7.432;2023-12-07T04:44:01;2.90;99.90
10051;DHT22;5065;46.942;7.432;2023-12-07T04:46:29;3.00;99.90
10051;DHT22;5065;46.942;7.432;2023-12-07T04:48:56;2.90;99.90
10051;DHT22;5065;46.942;7.432;2023-12-07T04:51:24;2.90;99.90
10051;DHT22;5065;46.942;7.432;2023-12-07T04:53:51;2.80;99.90
10051;DHT22;5065;46.942;7.432;2023-12-07T04:56:18;2.80;99.90
10051;DHT22;5065;46.942;7.432;2023-12-07T04:58:45;2.70;99.90
10051;DHT22;5065;46.942;7.432;2023-12-07T05:01:13;2.70;99.90
10051;DHT22;5065;46.942;7.432;2023-12-07T05:03:41;2.80;99.90
10051;DHT22;5065;46.942;7.432;2023-12-07T05:06:09;2.80;99.90
10051;DHT22;5065;46.942;7.432;2023-12-07T05:08:38;2.70;99.90
10051;DHT22;5065;46.942;7.432;2023-12-07T05:11:06;2.70;99.90
10051;DHT22;5065;46.942;7.432;2023-12-07T05:13:33;2.70;99.90
10051;DHT22;5065;46.942;7.432;2023-12-07T05:16:01;2.70;99.90
10051;DHT22;5065;46.942;7.432;2023-12-07T05:18:29;2.70;99.90
10051;DHT22;5065;46.942;7.432;2023-12-07T05:20:58;2.70;99.90
10051;DHT22;5065;46.942;7.432;2023-12-07T05:23:25;2.70;99.90
10051;DHT22;5065;46.942;7.432;2023-12-07T05:25:53;2.80;99.90
10051;DHT22;5065;46.942;7.432;2023-12-07T05:28:20;2.80;99.90
10051;DHT22;5065;46.942;7.432;2023-12-07T05:30:48;2.80;99.90
10051;DHT22;5065;46.942;7.432;2023-12-07T05:33:15;2.80;99.90
10051;DHT22;5065;46.942;7.432;2023-12-07T05:35:43;2.70;99.90
10051;DHT22;5065;46.942;7.432;2023-12-07T05:38:12;2.70;99.90
10051;DHT22;5065;46.942;7.432;2023-12-07T05:40:39;2.80;99.90
10051;DHT22;5065;46.942;7.432;2023-12-07T05:43:06;2.80;99.90
10051;DHT22;5065;46.942;7.432;2023-12-07T05:45:33;2.70;99.90
10051;DHT22;5065;46.942;7.432;2023-12-07T05:48:00;2.80;99.90
10051;DHT22;5065;46.942;7.432;2023-12-07T05:50:28;2.80;99.90
10051;DHT22;5065;46.942;7.432;2023-12-07T05:52:55;2.80;99.90
10051;DHT22;5065;46.942;7.432;2023-12-07T05:55:23;2.70;99.90
10051;DHT22;5065;46.942;7.432;2023-12-07T05:57:51;2.70;99.90
10051;DHT22;5065;46.942;7.432;2023-12-07T06:00:18;2.70;99.90
10051;DHT22;5065;46.942;7.432;2023-12-07T06:02:47;2.70;99.90
10051;DHT22;5065;46.942;7.432;2023-12-07T06:05:15;2.70;99.90
10051;DHT22;5065;46.942;7.432;2023-12-07T06:07:42;2.70;99.90
10051;DHT22;5065;46.942;7.432;2023-12-07T06:10:09;2.70;99.90
10051;DHT22;5065;46.942;7.432;2023-12-07T06:12:39;2.60;99.90
10051;DHT22;5065;46.942;7.432;2023-12-07T06:15:07;2.70;99.90
10051;DHT22;5065;46.942;7.432;2023-12-07T06:17:35;2.70;99.90
10051;DHT22;5065;46.942;7.432;2023-12-07T06:20:03;2.80;99.90
10051;DHT22;5065;46.942;7.432;2023-12-07T06:22:43;2.80;99.90
10051;DHT22;5065;46.942;7.432;2023-12-07T06:25:12;2.90;99.90
10051;DHT22;5065;46.942;7.432;2023-12-07T06:27:42;3.10;99.90
10051;DHT22;5065;46.942;7.432;2023-12-07T06:30:10;3.00;99.90
10051;DHT22;5065;46.942;7.432;2023-12-07T06:32:39;3.00;99.90
10051;DHT22;5065;46.942;7.432;2023-12-07T06:35:07;3.00;99.90
10051;DHT22;5065;46.942;7.432;2023-12-07T06:37:34;2.90;99.90
10051;DHT22;5065;46.942;7.432;2023-12-07T06:40:02;2.90;99.90
10051;DHT22;5065;46.942;7.432;2023-12-07T06:42:30;2.90;99.90
10051;DHT22;5065;46.942;7.432;2023-12-07T06:44:58;2.90;99.90
10051;DHT22;5065;46.942;7.432;2023-12-07T06:47:26;2.90;99.90
10051;DHT22;5065;46.942;7.432;2023-12-07T06:49:53;2.90;99.90
10051;DHT22;5065;46.942;7.432;2023-12-07T06:52:21;2.80;99.90
10051;DHT22;5065;46.942;7.432;2023-12-07T06:54:48;2.80;99.90
10051;DHT22;5065;46.942;7.432;2023-12-07T06:57:15;2.80;99.90
10051;DHT22;5065;46.942;7.432;2023-12-07T06:59:42;2.80;99.90
10051;DHT22;5065;46.942;7.432;2023-12-07T07:02:11;2.80;99.90
10051;DHT22;5065;46.942;7.432;2023-12-07T07:04:38;2.80;99.90
10051;DHT22;5065;46.942;7.432;2023-12-07T07:07:05;2.80;99.90
10051;DHT22;5065;46.942;7.432;2023-12-07T07:09:32;2.70;99.90
10051;DHT22;5065;46.942;7.432;2023-12-07T07:12:00;2.70;99.90
10051;DHT22;5065;46.942;7.432;2023-12-07T07:14:27;2.70;99.90
10051;DHT22;5065;46.942;7.432;2023-12-07T07:16:54;2.70;99.90
10051;DHT22;5065;46.942;7.432;2023-12-07T07:19:23;2.80;99.90
10051;DHT22;5065;46.942;7.432;2023-12-07T07:21:50;2.80;99.90
10051;DHT22;5065;46.942;7.432;2023-12-07T07:24:17;2.80;99.90
10051;DHT22;5065;46.942;7.432;2023-12-07T07:26:44;2.80;99.90
10051;DHT22;5065;46.942;7.432;2023-12-07T07:29:11;2.90;99.90
10051;DHT22;5065;46.942;7.432;2023-12-07T07:31:39;3.00;99.90
10051;DHT22;5065;46.942;7.432;2023-12-07T07:34:06;3.10;99.90
10051;DHT22;5065;46.942;7.432;2023-12-07T07:36:35;3.20;99.90
10051;DHT22;5065;46.942;7.432;2023-12-07T07:39:02;3.20;99.90
10051;DHT22;5065;46.942;7.432;2023-12-07T07:41:30;3.30;99.90
10051;DHT22;5065;46.942;7.432;2023-12-07T07:43:57;3.40;99.90
10051;DHT22;5065;46.942;7.432;2023-12-07T07:46:25;3.40;99.90
10051;DHT22;5065;46.942;7.432;2023-12-07T07:48:55;3.50;99.90
10051;DHT22;5065;46.942;7.432;2023-12-07T07:51:22;3.50;99.90
10051;DHT22;5065;46.942;7.432;2023-12-07T07:53:52;3.60;99.90
10051;DHT22;5065;46.942;7.432;2023-12-07T07:56:20;3.70;99.90
10051;DHT22;5065;46.942;7.432;2023-12-07T07:58:47;3.80;99.90
10051;DHT22;5065;46.942;7.432;2023-12-07T08:01:14;4.00;99.90
10051;DHT22;5065;46.942;7.432;2023-12-07T08:03:41;4.20;99.90
10051;DHT22;5065;46.942;7.432;2023-12-07T08:06:09;4.30;99.90
10051;DHT22;5065;46.942;7.432;2023-12-07T08:08:36;4.40;99.90
10051;DHT22;5065;46.942;7.432;2023-12-07T08:11:05;4.60;99.90
10051;DHT22;5065;46.942;7.432;2023-12-07T08:13:32;4.50;99.90
10051;DHT22;5065;46.942;7.432;2023-12-07T08:16:00;4.40;99.90
10051;DHT22;5065;46.942;7.432;2023-12-07T08:18:27;4.40;99.90
10051;DHT22;5065;46.942;7.432;2023-12-07T08:20:54;4.40;99.90
10051;DHT22;5065;46.942;7.432;2023-12-07T08:23:22;4.50;99.90
10051;DHT22;5065;46.942;7.432;2023-12-07T08:25:49;4.70;99.90
10051;DHT22;5065;46.942;7.432;2023-12-07T08:28:17;5.00;99.90
10051;DHT22;5065;46.942;7.432;2023-12-07T08:30:45;5.10;99.90
10051;DHT22;5065;46.942;7.432;2023-12-07T08:33:12;5.30;99.90
10051;DHT22;5065;46.942;7.432;2023-12-07T08:35:40;5.30;99.90
10051;DHT22;5065;46.942;7.432;2023-12-07T08:38:07;5.30;99.90
10051;DHT22;5065;46.942;7.432;2023-12-07T08:40:34;5.30;99.90
10051;DHT22;5065;46.942;7.432;2023-12-07T08:43:01;5.40;99.90
10051;DHT22;5065;46.942;7.432;2023-12-07T08:45:32;5.50;99.90
10051;DHT22;5065;46.942;7.432;2023-12-07T08:48:00;5.60;99.90
10051;DHT22;5065;46.942;7.432;2023-12-07T08:50:27;5.50;99.90
10051;DHT22;5065;46.942;7.432;2023-12-07T08:52:55;5.20;99.90
10051;DHT22;5065;46.942;7.432;2023-12-07T08:55:22;5.20;99.90
10051;DHT22;5065;46.942;7.432;2023-12-07T08:57:49;5.10;99.90
10051;DHT22;5065;46.942;7.432;2023-12-07T09:00:17;4.90;99.90
10051;DHT22;5065;46.942;7.432;2023-12-07T09:02:51;5.00;99.90
10051;DHT22;5065;46.942;7.432;2023-12-07T09:05:18;5.20;99.90
10051;DHT22;5065;46.942;7.432;2023-12-07T09:07:45;5.40;99.90
10051;DHT22;5065;46.942;7.432;2023-12-07T09:10:13;5.40;99.90
10051;DHT22;5065;46.942;7.432;2023-12-07T09:12:40;5.70;99.90
10051;DHT22;5065;46.942;7.432;2023-12-07T09:15:08;5.90;99.90
10051;DHT22;5065;46.942;7.432;2023-12-07T09:17:37;5.90;99.90
10051;DHT22;5065;46.942;7.432;2023-12-07T09:20:06;6.00;99.90
10051;DHT22;5065;46.942;7.432;2023-12-07T09:22:38;5.90;99.90
10051;DHT22;5065;46.942;7.432;2023-12-07T09:25:14;5.90;99.90
10051;DHT22;5065;46.942;7.432;2023-12-07T09:27:42;5.90;99.90
10051;DHT22;5065;46.942;7.432;2023-12-07T09:30:10;5.90;99.90
10051;DHT22;5065;46.942;7.432;2023-12-07T09:32:38;5.80;99.90
10051;DHT22;5065;46.942;7.432;2023-12-07T09:35:07;5.80;99.90
10051;DHT22;5065;46.942;7.432;2023-12-07T09:37:40;5.70;99.90
10051;DHT22;5065;46.942;7.432;2023-12-07T09:40:09;5.80;99.90
10051;DHT22;5065;46.942;7.432;2023-12-07T09:42:41;5.90;99.90
10051;DHT22;5065;46.942;7.432;2023-12-07T09:45:09;5.90;99.90
10051;DHT22;5065;46.942;7.432;2023-12-07T09:47:37;6.00;99.90
10051;DHT22;5065;46.942;7.432;2023-12-07T09:50:07;5.90;99.90
10051;DHT22;5065;46.942;7.432;2023-12-07T09:52:35;6.00;99.90
10051;DHT22;5065;46.942;7.432;2023-12-07T09:55:03;5.90;99.90
10051;DHT22;5065;46.942;7.432;2023-12-07T09:57:31;5.90;99.90
10051;DHT22;5065;46.942;7.432;2023-12-07T09:59:59;5.80;99.90
10051;DHT22;5065;46.942;7.432;2023-12-07T10:02:26;6.00;99.90
10051;DHT22;5065;46.942;7.432;2023-12-07T10:05:04;6.10;99.90
10051;DHT22;5065;46.942;7.432;2023-12-07T10:07:34;6.30;99.90
10051;DHT22;5065;46.942;7.432;2023-12-07T10:10:04;6.30;99.90
10051;DHT22;5065;46.942;7.432;2023-12-07T10:12:33;6.40;99.90
10051;DHT22;5065;46.942;7.432;2023-12-07T10:15:00;6.50;99.90
10051;DHT22;5065;46.942;7.432;2023-12-07T10:17:47;6.60;99.90
10051;DHT22;5065;46.942;7.432;2023-12-07T10:20:16;6.60;99.90
10051;DHT22;5065;46.942;7.432;2023-12-07T10:22:45;6.60;99.90
10051;DHT22;5065;46.942;7.432;2023-12-07T10:25:13;6.60;99.90
10051;DHT22;5065;46.942;7.432;2023-12-07T10:27:41;6.50;99.90
10051;DHT22;5065;46.942;7.432;2023-12-07T10:30:10;6.40;99.90
10051;DHT22;5065;46.942;7.432;2023-12-07T10:32:38;6.40;99.90
10051;DHT22;5065;46.942;7.432;2023-12-07T10:35:09;6.40;99.90
10051;DHT22;5065;46.942;7.432;2023-12-07T10:37:36;6.30;99.90
10051;DHT22;5065;46.942;7.432;2023-12-07T10:40:06;6.20;99.90
10051;DHT22;5065;46.942;7.432;2023-12-07T10:42:36;6.10;99.90
10051;DHT22;5065;46.942;7.432;2023-12-07T10:45:05;6.00;99.90
10051;DHT22;5065;46.942;7.432;2023-12-07T10:47:35;6.00;99.90
10051;DHT22;5065;46.942;7.432;2023-12-07T10:50:06;6.00;99.90
10051;DHT22;5065;46.942;7.432;2023-12-07T10:52:40;6.00;99.90
10051;DHT22;5065;46.942;7.432;2023-12-07T10:55:16;6.00;99.90
10051;DHT22;5065;46.942;7.432;2023-12-07T10:57:44;6.00;99.90
10051;DHT22;5065;46.942;7.432;2023-12-07T11:00:14;5.90;99.90
10051;DHT22;5065;46.942;7.432;2023-12-07T11:02:42;5.80;99.90
10051;DHT22;5065;46.942;7.432;2023-12-07T11:05:11;5.80;99.90
10051;DHT22;5065;46.942;7.432;2023-12-07T11:07:47;5.70;99.90
10051;DHT22;5065;46.942;7.432;2023-12-07T11:10:23;5.80;99.90
10051;DHT22;5065;46.942;7.432;2023-12-07T11:12:59;5.80;99.90
10051;DHT22;5065;46.942;7.432;2023-12-07T11:15:28;5.80;99.90
10051;DHT22;5065;46.942;7.432;2023-12-07T11:17:55;5.70;99.90
10051;DHT22;5065;46.942;7.432;2023-12-07T11:20:32;5.80;99.90
10051;DHT22;5065;46.942;7.432;2023-12-07T11:23:00;5.80;99.90
10051;DHT22;5065;46.942;7.432;2023-12-07T11:25:28;5.80;99.90
10051;DHT22;5065;46.942;7.432;2023-12-07T11:28:00;5.90;99.90
10051;DHT22;5065;46.942;7.432;2023-12-07T11:30:31;6.00;99.90
10051;DHT22;5065;46.942;7.432;2023-12-07T11:32:59;5.90;99.90
10051;DHT22;5065;46.942;7.432;2023-12-07T11:35:26;5.90;99.90
10051;DHT22;5065;46.942;7.432;2023-12-07T11:38:04;5.90;99.90
10051;DHT22;5065;46.942;7.432;2023-12-07T11:40:35;5.80;99.90
10051;DHT22;5065;46.942;7.432;2023-12-07T11:43:02;5.70;99.90
10051;DHT22;5065;46.942;7.432;2023-12-07T11:45:41;5.70;99.90
10051;DHT22;5065;46.942;7.432;2023-12-07T11:48:10;5.60;99.90
10051;DHT22;5065;46.942;7.432;2023-12-07T11:50:54;5.60;99.90
10051;DHT22;5065;46.942;7.432;2023-12-07T11:53:22;5.50;99.90
10051;DHT22;5065;46.942;7.432;2023-12-07T11:55:52;5.50;99.90
10051;DHT22;5065;46.942;7.432;2023-12-07T11:58:19;5.50;99.90
10051;DHT22;5065;46.942;7.432;2023-12-07T12:00:47;5.40;99.90
10051;DHT22;5065;46.942;7.432;2023-12-07T12:03:14;5.40;99.90
10051;DHT22;5065;46.942;7.432;2023-12-07T12:05:41;5.30;99.90
10051;DHT22;5065;46.942;7.432;2023-12-07T12:08:10;5.30;99.90
10051;DHT22;5065;46.942;7.432;2023-12-07T12:10:37;5.40;99.90
10051;DHT22;5065;46.942;7.432;2023-12-07T12:13:06;5.40;99.90
10051;DHT22;5065;46.942;7.432;2023-12-07T12:15:33;5.50;99.90
10051;DHT22;5065;46.942;7.432;2023-12-07T12:18:01;5.50;99.90
10051;DHT22;5065;46.942;7.432;2023-12-07T12:20:28;5.60;99.90
10051;DHT22;5065;46.942;7.432;2023-12-07T12:22:58;5.50;99.90
10051;DHT22;5065;46.942;7.432;2023-12-07T12:25:27;5.40;99.90
10051;DHT22;5065;46.942;7.432;2023-12-07T12:27:57;5.40;99.90
10051;DHT22;5065;46.942;7.432;2023-12-07T12:30:27;5.50;99.90
10051;DHT22;5065;46.942;7.432;2023-12-07T12:32:54;5.50;99.90
10051;DHT22;5065;46.942;7.432;2023-12-07T12:35:22;5.50;99.90
10051;DHT22;5065;46.942;7.432;2023-12-07T12:37:50;5.50;99.90
10051;DHT22;5065;46.942;7.432;2023-12-07T12:40:18;5.50;99.90
10051;DHT22;5065;46.942;7.432;2023-12-07T12:42:47;5.50;99.90
10051;DHT22;5065;46.942;7.432;2023-12-07T12:45:15;5.50;99.90
10051;DHT22;5065;46.942;7.432;2023-12-07T12:47:46;5.50;99.90
10051;DHT22;5065;46.942;7.432;2023-12-07T12:50:32;5.40;99.90
10051;DHT22;5065;46.942;7.432;2023-12-07T12:52:59;5.40;99.90
10051;DHT22;5065;46.942;7.432;2023-12-07T12:55:28;5.40;99.90
10051;DHT22;5065;46.942;7.432;2023-12-07T12:57:55;5.30;99.90
10051;DHT22;5065;46.942;7.432;2023-12-07T13:00:24;5.30;99.90
10051;DHT22;5065;46.942;7.432;2023-12-07T13:02:53;5.40;99.90
10051;DHT22;5065;46.942;7.432;2023-12-07T13:05:21;5.40;99.90
10051;DHT22;5065;46.942;7.432;2023-12-07T13:07:48;5.40;99.90
10051;DHT22;5065;46.942;7.432;2023-12-07T13:10:16;5.20;99.90
10051;DHT22;5065;46.942;7.432;2023-12-07T13:12:45;5.30;99.90
10051;DHT22;5065;46.942;7.432;2023-12-07T13:15:13;5.20;99.90
10051;DHT22;5065;46.942;7.432;2023-12-07T13:17:42;5.10;99.90
10051;DHT22;5065;46.942;7.432;2023-12-07T13:20:12;5.10;99.90
10051;DHT22;5065;46.942;7.432;2023-12-07T13:22:40;5.10;99.90
10051;DHT22;5065;46.942;7.432;2023-12-07T13:25:09;5.10;99.90
10051;DHT22;5065;46.942;7.432;2023-12-07T13:27:37;5.10;99.90
10051;DHT22;5065;46.942;7.432;2023-12-07T13:30:06;5.00;99.90
10051;DHT22;5065;46.942;7.432;2023-12-07T13:32:34;5.10;99.90
10051;DHT22;5065;46.942;7.432;2023-12-07T13:35:03;4.90;99.90
10051;DHT22;5065;46.942;7.432;2023-12-07T13:37:32;4.70;99.90
10051;DHT22;5065;46.942;7.432;2023-12-07T13:40:00;4.60;99.90
10051;DHT22;5065;46.942;7.432;2023-12-07T13:42:31;4.60;99.90
10051;DHT22;5065;46.942;7.432;2023-12-07T13:44:58;4.70;99.90
10051;DHT22;5065;46.942;7.432;2023-12-07T13:47:27;4.70;99.90
10051;DHT22;5065;46.942;7.432;2023-12-07T13:49:57;4.80;99.90
10051;DHT22;5065;46.942;7.432;2023-12-07T13:52:25;4.90;99.90
10051;DHT22;5065;46.942;7.432;2023-12-07T13:54:58;4.90;99.90
10051;DHT22;5065;46.942;7.432;2023-12-07T13:57:27;4.90;99.90
10051;DHT22;5065;46.942;7.432;2023-12-07T13:59:55;5.00;99.90
10051;DHT22;5065;46.942;7.432;2023-12-07T14:02:22;5.00;99.90
10051;DHT22;5065;46.942;7.432;2023-12-07T14:04:50;5.00;99.90
10051;DHT22;5065;46.942;7.432;2023-12-07T14:07:19;5.10;99.90
10051;DHT22;5065;46.942;7.432;2023-12-07T14:09:49;5.10;99.90
10051;DHT22;5065;46.942;7.432;2023-12-07T14:12:18;5.10;99.90
10051;DHT22;5065;46.942;7.432;2023-12-07T14:14:47;5.00;99.90
10051;DHT22;5065;46.942;7.432;2023-12-07T14:17:15;5.00;99.90
10051;DHT22;5065;46.942;7.432;2023-12-07T14:19:43;5.00;99.90
10051;DHT22;5065;46.942;7.432;2023-12-07T14:22:11;5.00;99.90
10051;DHT22;5065;46.942;7.432;2023-12-07T14:24:38;5.00;99.90
10051;DHT22;5065;46.942;7.432;2023-12-07T14:27:07;5.00;99.90
10051;DHT22;5065;46.942;7.432;2023-12-07T14:29:36;5.00;99.90
10051;DHT22;5065;46.942;7.432;2023-12-07T14:32:06;5.00;99.90
10051;DHT22;5065;46.942;7.432;2023-12-07T14:34:35;5.10;99.90
10051;DHT22;5065;46.942;7.432;2023-12-07T14:37:03;5.10;99.90
10051;DHT22;5065;46.942;7.432;2023-12-07T14:39:31;5.10;99.90
10051;DHT22;5065;46.942;7.432;2023-12-07T14:41:59;5.00;99.90
10051;DHT22;5065;46.942;7.432;2023-12-07T14:44:26;5.00;99.90
10051;DHT22;5065;46.942;7.432;2023-12-07T14:46:56;5.00;99.90
10051;DHT22;5065;46.942;7.432;2023-12-07T14:49:23;5.00;99.90
10051;DHT22;5065;46.942;7.432;2023-12-07T14:51:51;5.00;99.90
10051;DHT22;5065;46.942;7.432;2023-12-07T14:54:18;5.00;99.90
10051;DHT22;5065;46.942;7.432;2023-12-07T14:56:46;5.00;99.90
10051;DHT22;5065;46.942;7.432;2023-12-07T14:59:14;4.90;99.90
10051;DHT22;5065;46.942;7.432;2023-12-07T15:01:42;4.90;99.90
10051;DHT22;5065;46.942;7.432;2023-12-07T15:04:11;4.90;99.90
10051;DHT22;5065;46.942;7.432;2023-12-07T15:06:40;4.90;99.90
10051;DHT22;5065;46.942;7.432;2023-12-07T15:09:07;4.80;99.90
10051;DHT22;5065;46.942;7.432;2023-12-07T15:11:34;4.80;99.90
10051;DHT22;5065;46.942;7.432;2023-12-07T15:14:02;4.80;99.90
10051;DHT22;5065;46.942;7.432;2023-12-07T15:16:29;4.80;99.90
10051;DHT22;5065;46.942;7.432;2023-12-07T15:18:57;4.70;99.90
10051;DHT22;5065;46.942;7.432;2023-12-07T15:21:25;4.70;99.90
10051;DHT22;5065;46.942;7.432;2023-12-07T15:23:52;4.70;99.90
10051;DHT22;5065;46.942;7.432;2023-12-07T15:26:20;4.60;99.90
10051;DHT22;5065;46.942;7.432;2023-12-07T15:28:47;4.60;99.90
10051;DHT22;5065;46.942;7.432;2023-12-07T15:31:14;4.50;99.90
10051;DHT22;5065;46.942;7.432;2023-12-07T15:33:42;4.50;99.90
10051;DHT22;5065;46.942;7.432;2023-12-07T15:36:09;4.50;99.90
10051;DHT22;5065;46.942;7.432;2023-12-07T15:41:51;4.50;99.90
10051;DHT22;5065;46.942;7.432;2023-12-07T15:44:19;4.50;99.90
10051;DHT22;5065;46.942;7.432;2023-12-07T15:46:46;4.60;99.90
10051;DHT22;5065;46.942;7.432;2023-12-07T15:49:14;4.50;99.90
10051;DHT22;5065;46.942;7.432;2023-12-07T15:51:41;4.50;99.90
10051;DHT22;5065;46.942;7.432;2023-12-07T15:54:08;4.50;99.90
10051;DHT22;5065;46.942;7.432;2023-12-07T15:56:39;4.50;99.90
10051;DHT22;5065;46.942;7.432;2023-12-07T15:59:08;4.50;99.90
10051;DHT22;5065;46.942;7.432;2023-12-07T16:01:36;4.50;99.90
10051;DHT22;5065;46.942;7.432;2023-12-07T16:04:03;4.50;99.90
10051;DHT22;5065;46.942;7.432;2023-12-07T16:06:30;4.50;99.90
10051;DHT22;5065;46.942;7.432;2023-12-07T16:08:57;4.40;99.90
10051;DHT22;5065;46.942;7.432;2023-12-07T16:11:24;4.50;99.90